createdAt,value
2023-05-14T00:01:23.876Z,10.82
2023-05-14T00:03:53.303Z,9.98
2023-05-14T00:06:21.522Z,10.02
2023-05-14T00:08:49.378Z,9.35
2023-05-14T00:11:17.254Z,9.65
2023-05-14T00:13:45.087Z,10.10
2023-05-14T00:16:13.124Z,10.35
2023-05-14T00:18:41.355Z,10.25
2023-05-14T00:21:10.505Z,10.40
2023-05-14T00:23:38.383Z,10.55
2023-05-14T00:26:06.289Z,9.98
2023-05-14T00:28:34.233Z,9.80
2023-05-14T00:31:02.117Z,10.10
2023-05-14T00:33:29.887Z,10.68
2023-05-14T00:35:57.699Z,11.70
2023-05-14T00:38:28.464Z,10.50
2023-05-14T00:40:56.646Z,9.90
2023-05-14T00:43:25.202Z,10.50
2023-05-14T00:45:56.028Z,10.45
2023-05-14T00:48:30.018Z,10.70
2023-05-14T00:51:03.102Z,9.95
2023-05-14T00:53:36.807Z,9.90
2023-05-14T00:56:08.467Z,9.40
2023-05-14T00:58:42.459Z,10.38
2023-05-14T01:04:06.561Z,9.60
2023-05-14T01:06:52.153Z,10.60
2023-05-14T01:09:31.289Z,10.52
2023-05-14T01:12:10.721Z,9.80
2023-05-14T01:14:47.189Z,10.60
2023-05-14T01:17:24.282Z,10.25
2023-05-14T01:19:58.292Z,10.35
2023-05-14T01:22:28.709Z,10.10
2023-05-14T01:25:05.363Z,10.63
2023-05-14T01:27:44.318Z,10.60
2023-05-14T01:30:21.006Z,10.60
2023-05-14T01:32:56.158Z,10.23
2023-05-14T01:35:29.538Z,10.23
2023-05-14T01:38:16.754Z,10.35
2023-05-14T01:40:47.659Z,9.80
2023-05-14T01:43:17.615Z,9.90
2023-05-14T01:45:48.535Z,9.93
2023-05-14T01:48:20.715Z,9.95
2023-05-14T01:50:52.700Z,10.40
2023-05-14T01:53:27.692Z,10.25
2023-05-14T01:56:04.584Z,9.07
2023-05-14T01:58:38.352Z,9.82
2023-05-14T02:01:10.707Z,10.63
2023-05-14T02:03:51.266Z,10.02
2023-05-14T02:06:26.219Z,10.07
2023-05-14T02:09:06.386Z,9.77
2023-05-14T02:11:40.693Z,9.85
2023-05-14T02:14:11.633Z,9.75
2023-05-14T02:16:48.144Z,9.48
2023-05-14T02:19:19.283Z,10.07
2023-05-14T02:21:55.142Z,8.98
2023-05-14T02:27:01.361Z,9.07
2023-05-14T02:29:30.188Z,9.32
2023-05-14T02:32:03.573Z,9.25
2023-05-14T02:34:44.534Z,9.13
2023-05-14T02:37:28.913Z,9.68
2023-05-14T02:39:59.094Z,9.50
2023-05-14T02:42:33.758Z,9.07
2023-05-14T02:45:04.730Z,9.18
2023-05-14T02:47:41.482Z,9.18
2023-05-14T02:50:11.716Z,9.55
2023-05-14T02:52:51.151Z,9.57
2023-05-14T02:55:26.634Z,9.45
2023-05-14T02:57:55.693Z,9.67
2023-05-14T03:00:26.102Z,9.45
2023-05-14T03:02:58.921Z,9.30
2023-05-14T03:05:30.103Z,9.15
2023-05-14T03:07:59.572Z,9.15
2023-05-14T03:10:33.169Z,9.07
2023-05-14T03:13:02.121Z,9.50
2023-05-14T03:15:35.413Z,9.38
2023-05-14T03:18:07.674Z,8.93
2023-05-14T03:20:36.632Z,9.02
2023-05-14T03:23:07.392Z,9.10
2023-05-14T03:25:45.354Z,9.40
2023-05-14T03:28:24.792Z,9.85
2023-05-14T03:31:01.820Z,10.02
2023-05-14T03:33:32.115Z,12.20
2023-05-14T03:36:13.206Z,12.45
2023-05-14T03:38:55.369Z,14.10
2023-05-14T03:41:30.324Z,14.77
2023-05-14T03:44:01.301Z,14.18
2023-05-14T03:46:35.688Z,13.82
2023-05-14T03:49:23.250Z,14.43
2023-05-14T03:52:01.922Z,13.20
2023-05-14T03:54:36.551Z,12.07
2023-05-14T03:57:06.947Z,10.23
2023-05-14T03:59:36.692Z,10.88
2023-05-14T04:02:09.899Z,10.13
2023-05-14T04:04:38.533Z,10.07
2023-05-14T04:07:09.035Z,9.50
2023-05-14T04:09:52.232Z,9.75
2023-05-14T04:12:32.854Z,10.20
2023-05-14T04:15:04.427Z,10.50
2023-05-14T04:17:39.042Z,10.07
2023-05-14T04:20:13.991Z,10.35
2023-05-14T04:22:45.117Z,10.60
2023-05-14T04:25:15.457Z,10.88
2023-05-14T04:27:46.301Z,12.05
2023-05-14T04:30:35.878Z,11.35
2023-05-14T04:33:12.512Z,10.73
2023-05-14T04:35:41.787Z,9.90
2023-05-14T04:38:11.483Z,9.63
2023-05-14T04:40:40.056Z,10.10
2023-05-14T04:43:14.903Z,9.80
2023-05-14T04:46:02.490Z,8.55
2023-05-14T04:48:39.890Z,8.18
2023-05-14T04:51:14.341Z,8.38
2023-05-14T04:53:44.757Z,8.18
2023-05-14T04:56:15.081Z,8.25
2023-05-14T04:58:50.314Z,7.70
2023-05-14T05:01:22.502Z,7.50
2023-05-14T05:03:58.414Z,7.43
2023-05-14T05:06:30.160Z,7.60
2023-05-14T05:09:03.505Z,7.47
2023-05-14T05:11:31.414Z,7.55
2023-05-14T05:14:00.765Z,7.32
2023-05-14T05:16:28.653Z,7.95
2023-05-14T05:18:56.553Z,7.35
2023-05-14T05:21:24.444Z,6.82
2023-05-14T05:23:52.213Z,7.30
2023-05-14T05:26:20.097Z,6.45
2023-05-14T05:28:47.924Z,7.50
2023-05-14T05:31:19.643Z,7.43
2023-05-14T05:33:49.216Z,6.57
2023-05-14T05:36:17.068Z,6.82
2023-05-14T05:38:44.833Z,6.45
2023-05-14T05:41:12.640Z,6.63
2023-05-14T05:43:40.637Z,6.80
2023-05-14T05:46:08.545Z,6.20
2023-05-14T05:48:37.743Z,6.28
2023-05-14T05:51:05.947Z,6.75
2023-05-14T05:53:33.837Z,6.35
2023-05-14T05:56:01.638Z,6.05
2023-05-14T05:58:29.464Z,6.13
2023-05-14T06:00:58.191Z,5.75
2023-05-14T06:03:27.018Z,6.25
2023-05-14T06:05:56.160Z,5.70
2023-05-14T06:08:23.969Z,6.28
2023-05-14T06:10:51.821Z,5.72
2023-05-14T06:13:19.599Z,6.18
2023-05-14T06:15:47.380Z,6.30
2023-05-14T06:18:15.296Z,6.78
2023-05-14T06:20:43.250Z,6.65
2023-05-14T06:23:12.510Z,5.70
2023-05-14T06:25:40.378Z,6.00
2023-05-14T06:28:08.172Z,5.85
2023-05-14T06:30:35.974Z,6.25
2023-05-14T06:33:03.947Z,5.60
2023-05-14T06:35:31.887Z,5.43
2023-05-14T06:37:59.852Z,5.63
2023-05-14T06:40:29.058Z,5.90
2023-05-14T06:42:56.820Z,5.85
2023-05-14T06:45:24.683Z,6.30
2023-05-14T06:47:52.652Z,5.97
2023-05-14T06:50:20.569Z,6.50
2023-05-14T06:52:48.709Z,6.55
2023-05-14T06:55:16.549Z,6.40
2023-05-14T06:57:45.733Z,5.70
2023-05-14T07:00:15.701Z,6.05
2023-05-14T07:02:43.558Z,5.53
2023-05-14T07:05:11.558Z,5.68
2023-05-14T07:07:39.556Z,5.55
2023-05-14T07:10:08.519Z,5.78
2023-05-14T07:12:36.356Z,5.55
2023-05-14T07:15:06.677Z,5.03
2023-05-14T07:17:34.740Z,6.13
2023-05-14T07:20:02.806Z,5.22
2023-05-14T07:22:30.709Z,6.50
2023-05-14T07:24:58.590Z,5.93
2023-05-14T07:27:26.396Z,6.28
2023-05-14T07:29:54.226Z,6.10
2023-05-14T07:32:25.131Z,5.80
2023-05-14T07:34:53.153Z,5.95
2023-05-14T07:37:23.929Z,5.20
2023-05-14T07:39:52.081Z,5.00
2023-05-14T07:42:31.701Z,4.65
2023-05-14T07:45:02.854Z,5.05
2023-05-14T07:47:32.461Z,4.57
2023-05-14T07:50:00.943Z,4.75
2023-05-14T07:52:28.947Z,4.53
2023-05-14T07:54:56.809Z,4.40
2023-05-14T07:57:24.643Z,4.40
2023-05-14T07:59:52.538Z,4.30
2023-05-14T08:02:20.497Z,3.42
2023-05-14T08:04:49.786Z,3.38
2023-05-14T08:07:17.638Z,3.50
2023-05-14T08:09:45.463Z,3.22
2023-05-14T08:12:13.313Z,3.10
2023-05-14T08:14:41.662Z,3.30
2023-05-14T08:17:09.806Z,2.75
2023-05-14T08:19:37.905Z,2.88
2023-05-14T08:22:07.437Z,2.97
2023-05-14T08:24:35.434Z,2.80
2023-05-14T08:27:03.401Z,3.33
2023-05-14T08:29:31.355Z,3.20
2023-05-14T08:32:03.853Z,3.05
2023-05-14T08:34:39.928Z,2.80
2023-05-14T08:37:09.139Z,2.97
2023-05-14T08:39:37.028Z,2.72
2023-05-14T08:42:07.998Z,2.72
2023-05-14T08:44:40.387Z,3.00
2023-05-14T08:47:13.661Z,3.00
2023-05-14T08:49:42.701Z,2.83
2023-05-14T08:52:12.424Z,2.80
2023-05-14T08:54:40.906Z,2.85
2023-05-14T08:57:10.773Z,2.78
2023-05-14T08:59:38.992Z,2.60
2023-05-14T09:02:07.852Z,2.80
2023-05-14T09:04:35.722Z,2.55
2023-05-14T09:07:06.627Z,2.30
2023-05-14T09:09:36.201Z,2.38
2023-05-14T09:12:04.309Z,2.30
2023-05-14T09:14:34.110Z,2.40
2023-05-14T09:17:02.311Z,2.55
2023-05-14T09:19:30.170Z,2.70
2023-05-14T09:21:59.607Z,2.03
2023-05-14T09:24:29.657Z,2.38
2023-05-14T09:26:59.805Z,2.05
2023-05-14T09:29:28.516Z,2.15
2023-05-14T09:31:57.393Z,2.00
2023-05-14T09:34:26.187Z,2.00
2023-05-14T09:36:57.285Z,1.90
2023-05-14T09:39:25.662Z,2.00
2023-05-14T09:41:53.836Z,1.80
2023-05-14T09:44:23.438Z,1.83
2023-05-14T09:46:51.673Z,1.80
2023-05-14T09:49:19.947Z,1.92
2023-05-14T09:51:48.202Z,2.03
2023-05-14T09:54:16.223Z,1.90
2023-05-14T09:56:45.197Z,1.60
2023-05-14T09:59:13.164Z,1.60
2023-05-14T10:01:44.639Z,1.60
2023-05-14T10:04:13.592Z,1.75
2023-05-14T10:06:42.871Z,1.80
2023-05-14T10:09:13.288Z,2.28
2023-05-14T10:11:45.058Z,2.30
2023-05-14T10:14:18.216Z,2.28
2023-05-14T10:16:50.191Z,2.28
2023-05-14T10:19:19.684Z,2.20
2023-05-14T10:21:54.099Z,2.50
2023-05-14T10:26:50.550Z,2.45
2023-05-14T10:29:18.484Z,2.50
2023-05-14T10:31:50.094Z,2.30
2023-05-14T10:34:37.525Z,2.30
2023-05-14T10:37:06.335Z,2.00
2023-05-14T10:39:45.339Z,2.08
2023-05-14T10:42:14.064Z,1.92
2023-05-14T10:44:48.650Z,1.95
2023-05-14T10:47:18.582Z,2.30
2023-05-14T10:49:49.140Z,1.90
2023-05-14T10:52:20.700Z,2.33
2023-05-14T10:54:53.047Z,3.22
2023-05-14T10:57:23.302Z,2.28
2023-05-14T10:59:53.272Z,2.33
2023-05-14T11:02:26.190Z,2.70
2023-05-14T11:04:59.503Z,2.70
2023-05-14T11:07:32.938Z,2.75
2023-05-14T11:10:06.823Z,3.42
2023-05-14T11:12:35.820Z,3.23
2023-05-14T11:15:06.092Z,3.25
2023-05-14T11:17:36.807Z,2.90
2023-05-14T11:20:06.406Z,3.05
2023-05-14T11:22:34.684Z,3.20
2023-05-14T11:25:02.767Z,3.00
2023-05-14T11:27:31.697Z,2.90
2023-05-14T11:30:00.955Z,3.00
2023-05-14T11:32:29.061Z,3.13
2023-05-14T11:34:58.431Z,3.08
2023-05-14T11:37:26.298Z,3.50
2023-05-14T11:39:55.273Z,3.05
2023-05-14T11:42:25.011Z,3.13
2023-05-14T11:44:56.881Z,3.00
2023-05-14T11:47:24.841Z,2.97
2023-05-14T11:49:52.807Z,2.78
2023-05-14T11:52:22.271Z,3.00
2023-05-14T11:54:50.921Z,2.80
2023-05-14T11:57:21.064Z,3.20
2023-05-14T11:59:50.663Z,3.15
2023-05-14T12:02:19.803Z,2.75
2023-05-14T12:04:52.031Z,2.85
2023-05-14T12:07:20.455Z,3.00
2023-05-14T12:09:50.768Z,3.20
2023-05-14T12:12:20.241Z,2.85
2023-05-14T12:14:48.360Z,2.70
2023-05-14T12:17:17.732Z,3.00
2023-05-14T12:19:47.026Z,3.30
2023-05-14T12:22:16.661Z,2.95
2023-05-14T12:24:45.134Z,2.92
2023-05-14T12:27:14.762Z,2.72
2023-05-14T12:29:44.784Z,2.67
2023-05-14T12:32:12.738Z,3.13
2023-05-14T12:34:40.581Z,3.10
2023-05-14T12:37:08.503Z,3.00
2023-05-14T12:39:36.882Z,3.28
2023-05-14T12:42:04.956Z,2.88
2023-05-14T12:44:34.278Z,2.80
2023-05-14T12:47:02.208Z,3.30
2023-05-14T12:49:30.155Z,2.92
2023-05-14T12:52:17.087Z,3.28
2023-05-14T12:54:45.896Z,2.75
2023-05-14T12:57:13.835Z,3.05
2023-05-14T12:59:43.043Z,3.17
2023-05-14T13:02:10.911Z,2.90
2023-05-14T13:04:39.302Z,3.30
2023-05-14T13:07:08.810Z,3.10
2023-05-14T13:09:36.724Z,2.90
2023-05-14T13:12:05.074Z,3.20
2023-05-14T13:14:32.924Z,3.10
2023-05-14T13:17:02.165Z,3.10
2023-05-14T13:19:30.081Z,2.80
2023-05-14T13:21:58.081Z,2.75
2023-05-14T13:24:28.540Z,2.60
2023-05-14T13:26:56.612Z,2.95
2023-05-14T13:29:25.532Z,2.50
2023-05-14T13:31:53.806Z,2.80
2023-05-14T13:34:23.072Z,2.90
2023-05-14T13:36:51.162Z,2.97
2023-05-14T13:39:22.522Z,2.70
2023-05-14T13:41:50.795Z,2.92
2023-05-14T13:44:18.721Z,2.92
2023-05-14T13:46:46.673Z,3.70
2023-05-14T13:49:14.615Z,3.42
2023-05-14T13:51:43.922Z,3.17
2023-05-14T13:54:11.824Z,3.30
2023-05-14T13:56:39.808Z,4.72
2023-05-14T13:59:07.735Z,3.20
2023-05-14T14:01:35.659Z,2.60
2023-05-14T14:04:03.588Z,3.03
2023-05-14T14:06:33.139Z,3.05
2023-05-14T14:09:02.419Z,3.05
2023-05-14T14:11:30.342Z,2.83
2023-05-14T14:13:58.223Z,3.17
2023-05-14T14:16:26.066Z,2.90
2023-05-14T14:18:54.062Z,2.88
2023-05-14T14:21:21.942Z,2.90
2023-05-14T14:23:49.721Z,2.80
2023-05-14T14:26:18.903Z,2.95
2023-05-14T14:28:46.770Z,2.90
2023-05-14T14:31:14.910Z,2.80
2023-05-14T14:33:42.907Z,2.58
2023-05-14T14:36:11.364Z,2.50
2023-05-14T14:38:39.943Z,2.60
2023-05-14T14:41:08.004Z,2.10
2023-05-14T14:43:37.740Z,2.22
2023-05-14T14:46:05.805Z,2.10
2023-05-14T14:48:37.448Z,2.40
2023-05-14T14:51:06.671Z,2.47
2023-05-14T14:53:35.917Z,2.20
2023-05-14T14:56:04.096Z,2.10
2023-05-14T14:58:32.056Z,2.50
2023-05-14T15:01:02.089Z,2.30
2023-05-14T15:03:30.195Z,2.20
2023-05-14T15:05:58.254Z,2.10
2023-05-14T15:08:27.582Z,2.03
2023-05-14T15:10:55.867Z,2.03
2023-05-14T15:13:24.390Z,1.90
2023-05-14T15:15:52.851Z,2.10
2023-05-14T15:18:22.231Z,2.00
2023-05-14T15:20:50.610Z,2.05
2023-05-14T15:23:18.523Z,2.00
2023-05-14T15:25:46.436Z,1.95
2023-05-14T15:28:14.289Z,3.28
2023-05-14T15:30:42.119Z,2.05
2023-05-14T15:33:10.121Z,1.90
2023-05-14T15:35:39.363Z,1.80
2023-05-14T15:38:08.246Z,1.90
2023-05-14T15:40:36.160Z,1.80
2023-05-14T15:43:04.182Z,1.77
2023-05-14T15:45:32.112Z,1.90
2023-05-14T15:48:00.055Z,1.77
2023-05-14T15:50:28.017Z,1.70
2023-05-14T15:52:57.361Z,1.40
2023-05-14T15:55:25.308Z,1.67
2023-05-14T15:57:53.123Z,1.58
2023-05-14T16:00:21.790Z,2.50
2023-05-14T16:02:49.872Z,2.50
2023-05-14T16:05:17.880Z,1.50
2023-05-14T16:07:45.790Z,1.38
2023-05-14T16:10:15.073Z,1.48
2023-05-14T16:12:42.911Z,1.70
2023-05-14T16:15:11.688Z,1.80
2023-05-14T16:17:39.877Z,1.60
2023-05-14T16:20:09.608Z,1.50
2023-05-14T16:22:37.724Z,1.45
2023-05-14T16:25:06.410Z,1.50
2023-05-14T16:27:36.531Z,1.50
2023-05-14T16:30:05.080Z,1.50
2023-05-14T16:32:33.741Z,1.40
2023-05-14T16:35:02.672Z,1.63
2023-05-14T16:37:30.648Z,1.40
2023-05-14T16:39:58.485Z,1.50
2023-05-14T16:42:26.766Z,1.50
2023-05-14T16:44:55.874Z,1.60
2023-05-14T16:47:23.749Z,1.63
2023-05-14T16:49:51.617Z,1.73
2023-05-14T16:52:19.499Z,2.90
2023-05-14T16:54:47.235Z,2.20
2023-05-14T16:57:15.140Z,2.13
2023-05-14T16:59:43.080Z,8.30
2023-05-14T17:02:12.286Z,4.60
2023-05-14T17:04:42.124Z,3.83
2023-05-14T17:07:10.244Z,2.10
2023-05-14T17:09:38.460Z,2.78
2023-05-14T17:12:06.940Z,5.50
2023-05-14T17:14:34.857Z,3.17
2023-05-14T17:17:03.085Z,3.97
2023-05-14T17:19:32.330Z,3.20
2023-05-14T17:22:00.572Z,3.58
2023-05-14T17:24:28.533Z,1.50
2023-05-14T17:26:56.555Z,1.30
2023-05-14T17:29:24.560Z,1.90
2023-05-14T17:31:52.543Z,1.30
2023-05-14T17:34:21.070Z,1.40
2023-05-14T17:36:50.630Z,1.50
2023-05-14T17:39:18.451Z,1.40
2023-05-14T17:41:46.360Z,1.20
2023-05-14T17:44:14.429Z,1.50
2023-05-14T17:46:42.649Z,1.50
2023-05-14T17:49:11.781Z,1.50
2023-05-14T17:51:39.691Z,1.50
2023-05-14T17:54:09.006Z,1.50
2023-05-14T17:56:37.280Z,2.17
2023-05-14T17:59:05.571Z,2.13
2023-05-14T18:01:33.799Z,1.80
2023-05-14T18:04:01.717Z,1.60
2023-05-14T18:06:29.756Z,1.58
2023-05-14T18:08:57.729Z,1.30
2023-05-14T18:11:32.650Z,1.50
2023-05-14T18:14:00.828Z,1.20
2023-05-14T18:16:29.259Z,1.70
2023-05-14T18:18:57.246Z,1.70
2023-05-14T18:21:25.223Z,1.60
2023-05-14T18:23:53.116Z,1.60
2023-05-14T18:26:21.896Z,1.40
2023-05-14T18:28:51.424Z,1.60
2023-05-14T18:31:19.588Z,1.58
2023-05-14T18:33:47.520Z,1.40
2023-05-14T18:36:15.466Z,1.50
2023-05-14T18:38:43.348Z,1.58
2023-05-14T18:41:11.193Z,1.70
2023-05-14T18:43:39.114Z,1.98
2023-05-14T18:46:08.481Z,1.90
2023-05-14T18:48:36.364Z,1.70
2023-05-14T18:51:05.349Z,1.92
2023-05-14T18:53:33.269Z,1.88
2023-05-14T18:56:01.330Z,1.48
2023-05-14T18:58:29.198Z,1.70
2023-05-14T19:00:58.387Z,1.50
2023-05-14T19:03:28.142Z,1.70
2023-05-14T19:05:56.857Z,1.60
2023-05-14T19:08:25.365Z,1.50
2023-05-14T19:10:54.825Z,1.90
2023-05-14T19:13:23.776Z,1.80
2023-05-14T19:15:54.705Z,1.90
2023-05-14T19:18:23.195Z,1.90
2023-05-14T19:20:52.692Z,1.80
2023-05-14T19:23:21.062Z,1.63
2023-05-14T19:25:49.025Z,1.73
2023-05-14T19:28:19.861Z,1.45
2023-05-14T19:30:47.887Z,1.73
2023-05-14T19:33:15.957Z,1.95
2023-05-14T19:35:43.959Z,1.73
2023-05-14T19:38:14.649Z,2.00
2023-05-14T19:40:44.392Z,1.70
2023-05-14T19:43:12.991Z,2.10
2023-05-14T19:45:42.627Z,1.80
2023-05-14T19:48:12.397Z,1.92
2023-05-14T19:50:41.405Z,1.90
2023-05-14T19:53:09.303Z,1.92
2023-05-14T19:55:38.713Z,1.70
2023-05-14T19:58:06.621Z,1.60
2023-05-14T20:00:34.507Z,1.83
2023-05-14T20:03:02.591Z,1.63
2023-05-14T20:05:30.631Z,1.55
2023-05-14T20:07:58.479Z,1.75
2023-05-14T20:10:26.662Z,1.70
2023-05-14T20:12:56.215Z,1.90
2023-05-14T20:15:24.280Z,2.30
2023-05-14T20:17:53.601Z,2.10
2023-05-14T20:20:22.279Z,1.90
2023-05-14T20:22:50.695Z,1.92
2023-05-14T20:25:18.883Z,2.00
2023-05-14T20:27:47.720Z,1.98
2023-05-14T20:30:20.123Z,2.10
2023-05-14T20:32:50.374Z,2.15
2023-05-14T20:35:21.445Z,2.10
2023-05-14T20:37:50.683Z,2.65
2023-05-14T20:40:21.529Z,2.70
2023-05-14T20:42:51.484Z,2.63
2023-05-14T20:45:21.642Z,2.72
2023-05-14T20:47:50.101Z,2.70
2023-05-14T20:50:23.979Z,2.55
2023-05-14T20:52:57.350Z,2.90
2023-05-14T20:55:32.862Z,3.08
2023-05-14T20:58:01.205Z,2.90
2023-05-14T21:00:30.804Z,2.85
2023-05-14T21:03:00.206Z,2.67
2023-05-14T21:05:29.047Z,2.95
2023-05-14T21:07:57.262Z,2.80
2023-05-14T21:10:28.792Z,2.85
2023-05-14T21:13:02.369Z,2.70
2023-05-14T21:15:32.733Z,2.97
2023-05-14T21:18:01.226Z,2.78
2023-05-14T21:20:30.911Z,2.22
2023-05-14T21:23:01.269Z,2.67
2023-05-14T21:25:31.800Z,2.63
2023-05-14T21:28:00.154Z,2.97
2023-05-14T21:30:32.851Z,2.88
2023-05-14T21:33:02.208Z,2.70
2023-05-14T21:35:30.188Z,2.90
2023-05-14T21:38:05.883Z,3.10
2023-05-14T21:40:34.051Z,2.67
2023-05-14T21:43:04.796Z,2.88
2023-05-14T21:45:37.590Z,2.60
2023-05-14T21:48:07.914Z,2.72
2023-05-14T21:50:37.108Z,2.80
2023-05-14T21:53:06.899Z,2.60
2023-05-14T21:55:36.133Z,2.50
2023-05-14T21:58:07.119Z,3.40
2023-05-14T22:00:36.754Z,2.70
2023-05-14T22:03:09.189Z,2.70
2023-05-14T22:05:38.065Z,2.65
2023-05-14T22:08:11.255Z,2.70
2023-05-14T22:10:47.065Z,2.55
2023-05-14T22:13:17.800Z,2.80
2023-05-14T22:15:47.409Z,2.90
2023-05-14T22:18:16.396Z,2.80
2023-05-14T22:20:44.261Z,3.15
2023-05-14T22:23:13.055Z,3.08
2023-05-14T22:25:41.032Z,2.90
2023-05-14T22:28:08.958Z,3.25
2023-05-14T22:30:36.882Z,3.00
2023-05-14T22:33:06.152Z,2.90
2023-05-14T22:35:34.109Z,3.33
2023-05-14T22:38:02.031Z,3.20
2023-05-14T22:40:29.856Z,3.10
2023-05-14T22:42:57.683Z,3.10
2023-05-14T22:45:25.773Z,2.85
2023-05-14T22:47:54.240Z,2.88
2023-05-14T22:50:23.581Z,3.08
2023-05-14T22:52:51.483Z,3.20
2023-05-14T22:55:19.414Z,3.70
2023-05-14T22:57:47.304Z,3.15
2023-05-14T23:00:16.160Z,3.00
2023-05-14T23:02:44.504Z,3.63
2023-05-14T23:05:12.463Z,3.95
2023-05-14T23:07:41.809Z,3.58
2023-05-14T23:10:10.478Z,3.63
2023-05-14T23:12:38.419Z,3.30
2023-05-14T23:15:07.359Z,3.45
2023-05-14T23:17:35.516Z,3.65
2023-05-14T23:20:04.889Z,4.18
2023-05-14T23:22:32.968Z,3.90
2023-05-14T23:25:02.216Z,4.07
2023-05-14T23:27:29.983Z,4.00
2023-05-14T23:29:57.944Z,4.15
2023-05-14T23:32:25.848Z,4.18
2023-05-14T23:34:53.826Z,3.63
2023-05-14T23:37:21.798Z,4.05
2023-05-14T23:39:49.668Z,4.07
2023-05-14T23:42:19.060Z,4.05
2023-05-14T23:44:47.020Z,4.10
2023-05-14T23:47:14.895Z,3.95
2023-05-14T23:49:42.887Z,3.78
2023-05-14T23:52:11.312Z,4.20
2023-05-14T23:54:39.294Z,4.00
2023-05-14T23:57:07.539Z,4.05
2023-05-14T23:59:36.879Z,4.47
